createdAt,value
2022-08-28T00:00:41.779Z,1.30
2022-08-28T00:03:10.951Z,1.10
2022-08-28T00:05:39.776Z,1.00
2022-08-28T00:08:08.028Z,1.00
2022-08-28T00:10:35.972Z,1.00
2022-08-28T00:13:02.903Z,1.40
2022-08-28T00:15:36.314Z,0.93
2022-08-28T00:18:04.900Z,0.98
2022-08-28T00:20:33.310Z,0.85
2022-08-28T00:23:01.048Z,0.90
2022-08-28T00:25:30.579Z,1.02
2022-08-28T00:28:00.677Z,1.08
2022-08-28T00:30:39.820Z,1.30
2022-08-28T00:33:14.206Z,1.42
2022-08-28T00:35:42.536Z,1.33
2022-08-28T00:38:11.003Z,1.20
2022-08-28T00:40:40.193Z,0.80
2022-08-28T00:43:08.335Z,0.93
2022-08-28T00:45:39.642Z,0.80
2022-08-28T00:48:07.553Z,0.75
2022-08-28T00:51:00.294Z,1.00
2022-08-28T00:53:29.917Z,0.80
2022-08-28T00:55:56.995Z,0.90
2022-08-28T00:58:23.925Z,0.85
2022-08-28T01:00:50.784Z,0.80
2022-08-28T01:03:17.685Z,0.80
2022-08-28T01:05:47.954Z,0.60
2022-08-28T01:08:15.503Z,0.80
2022-08-28T01:10:47.105Z,0.80
2022-08-28T01:13:14.960Z,0.70
2022-08-28T01:15:43.365Z,0.90
2022-08-28T01:18:13.761Z,0.60
2022-08-28T01:20:49.252Z,0.65
2022-08-28T01:23:50.246Z,0.70
2022-08-28T01:26:17.508Z,0.90
2022-08-28T01:28:45.322Z,0.63
2022-08-28T01:31:14.538Z,0.80
2022-08-28T01:33:43.315Z,0.60
2022-08-28T01:36:12.318Z,0.57
2022-08-28T01:38:41.717Z,0.50
2022-08-28T01:41:08.737Z,0.50
2022-08-28T01:43:35.722Z,0.70
2022-08-28T01:46:05.098Z,0.93
2022-08-28T01:48:36.123Z,0.80
2022-08-28T01:51:04.348Z,0.90
2022-08-28T01:53:33.149Z,1.00
2022-08-28T01:56:02.377Z,0.80
2022-08-28T01:58:36.012Z,0.70
2022-08-28T02:01:09.673Z,0.80
2022-08-28T02:03:36.894Z,0.82
2022-08-28T02:06:03.786Z,0.80
2022-08-28T02:08:30.567Z,0.77
2022-08-28T02:10:57.736Z,0.57
2022-08-28T02:13:25.631Z,0.60
2022-08-28T02:15:52.792Z,0.70
2022-08-28T02:18:20.430Z,0.80
2022-08-28T02:20:47.388Z,0.90
2022-08-28T02:23:15.574Z,0.88
2022-08-28T02:25:42.418Z,0.70
2022-08-28T02:28:09.469Z,0.90
2022-08-28T02:30:37.277Z,0.80
2022-08-28T02:33:04.575Z,1.10
2022-08-28T02:35:31.878Z,1.20
2022-08-28T02:38:11.531Z,1.10
2022-08-28T02:40:39.994Z,0.85
2022-08-28T02:43:07.413Z,1.20
2022-08-28T02:45:34.486Z,0.88
2022-08-28T02:48:04.238Z,1.40
2022-08-28T02:50:38.924Z,0.70
2022-08-28T02:53:05.716Z,0.60
2022-08-28T02:55:34.220Z,0.82
2022-08-28T02:58:01.257Z,0.70
2022-08-28T03:00:28.071Z,0.77
2022-08-28T03:02:55.123Z,0.75
2022-08-28T03:05:23.874Z,0.80
2022-08-28T03:07:53.314Z,0.75
2022-08-28T03:10:20.543Z,0.73
2022-08-28T03:12:48.175Z,0.77
2022-08-28T03:15:15.131Z,0.80
2022-08-28T03:17:42.097Z,0.52
2022-08-28T03:20:10.749Z,0.80
2022-08-28T03:22:55.947Z,1.00
2022-08-28T03:25:23.181Z,1.10
2022-08-28T03:27:50.700Z,1.45
2022-08-28T03:30:18.930Z,1.70
2022-08-28T03:32:45.998Z,2.47
2022-08-28T03:35:12.945Z,1.58
2022-08-28T03:37:39.840Z,1.23
2022-08-28T03:40:07.937Z,1.10
2022-08-28T03:42:35.232Z,0.90
2022-08-28T03:45:02.138Z,1.02
2022-08-28T03:47:29.662Z,1.13
2022-08-28T03:49:58.285Z,1.30
2022-08-28T03:52:25.326Z,1.40
2022-08-28T03:54:52.762Z,1.17
2022-08-28T03:57:21.601Z,1.08
2022-08-28T03:59:50.660Z,1.00
2022-08-28T04:02:20.591Z,0.80
2022-08-28T04:04:50.241Z,0.80
2022-08-28T04:07:18.575Z,0.63
2022-08-28T04:09:45.890Z,0.80
2022-08-28T04:12:13.083Z,0.60
2022-08-28T04:14:39.963Z,0.60
2022-08-28T04:17:07.077Z,0.70
2022-08-28T04:19:34.345Z,0.60
2022-08-28T04:22:01.339Z,0.60
2022-08-28T04:24:28.196Z,0.63
2022-08-28T04:26:55.090Z,0.70
2022-08-28T04:29:23.223Z,0.55
2022-08-28T04:31:50.484Z,0.70
2022-08-28T04:34:18.032Z,0.70
2022-08-28T04:36:46.122Z,0.80
2022-08-28T04:39:13.431Z,0.70
2022-08-28T04:41:40.697Z,0.70
2022-08-28T04:44:08.216Z,0.70
2022-08-28T04:46:36.487Z,1.10
2022-08-28T04:49:06.416Z,0.50
2022-08-28T04:51:33.612Z,0.52
2022-08-28T04:54:02.115Z,0.60
2022-08-28T04:56:29.032Z,0.45
2022-08-28T04:58:55.999Z,0.60
2022-08-28T05:01:24.704Z,0.52
2022-08-28T05:03:55.295Z,0.70
2022-08-28T05:06:22.884Z,0.68
2022-08-28T05:08:49.784Z,0.52
2022-08-28T05:11:32.874Z,0.65
2022-08-28T05:14:06.355Z,0.70
2022-08-28T05:16:35.426Z,0.50
2022-08-28T05:19:03.394Z,0.70
2022-08-28T05:21:30.351Z,0.57
2022-08-28T05:23:59.291Z,0.52
2022-08-28T05:26:29.625Z,0.60
2022-08-28T05:28:58.911Z,0.63
2022-08-28T05:31:27.258Z,0.60
2022-08-28T05:33:54.721Z,0.50
2022-08-28T05:36:25.817Z,0.60
2022-08-28T05:38:59.996Z,0.50
2022-08-28T05:41:30.176Z,0.70
2022-08-28T05:44:04.806Z,0.57
2022-08-28T05:46:33.025Z,0.52
2022-08-28T05:49:00.554Z,0.60
2022-08-28T05:51:28.441Z,0.68
2022-08-28T05:53:57.673Z,0.77
2022-08-28T05:56:29.895Z,0.82
2022-08-28T05:58:59.996Z,0.70
2022-08-28T06:01:31.922Z,0.70
2022-08-28T06:04:07.426Z,0.70
2022-08-28T06:06:35.724Z,0.70
2022-08-28T06:09:06.848Z,0.70
2022-08-28T06:11:34.123Z,0.60
2022-08-28T06:14:03.675Z,1.20
2022-08-28T06:16:32.453Z,1.00
2022-08-28T06:19:00.625Z,1.10
2022-08-28T06:21:28.371Z,1.15
2022-08-28T06:23:55.515Z,1.15
2022-08-28T06:26:23.076Z,1.50
2022-08-28T06:28:49.936Z,1.67
2022-08-28T06:31:23.288Z,1.27
2022-08-28T06:33:54.159Z,1.10
2022-08-28T06:36:21.915Z,1.17
2022-08-28T06:38:48.995Z,1.40
2022-08-28T06:41:16.681Z,1.55
2022-08-28T06:43:43.898Z,1.25
2022-08-28T06:46:11.216Z,1.10
2022-08-28T06:48:38.476Z,1.15
2022-08-28T06:51:10.158Z,1.15
2022-08-28T06:53:38.806Z,1.13
2022-08-28T06:56:25.393Z,1.30
2022-08-28T06:58:55.765Z,1.10
2022-08-28T07:01:35.178Z,1.35
2022-08-28T07:04:09.344Z,1.40
2022-08-28T07:06:53.722Z,1.17
2022-08-28T07:09:21.400Z,1.20
2022-08-28T07:11:48.224Z,1.20
2022-08-28T07:14:17.789Z,1.23
2022-08-28T07:16:51.730Z,1.38
2022-08-28T07:19:20.688Z,1.40
2022-08-28T07:21:48.262Z,1.20
2022-08-28T07:24:17.007Z,1.25
2022-08-28T07:26:45.200Z,1.20
2022-08-28T07:29:13.058Z,1.20
2022-08-28T07:31:49.214Z,0.95
2022-08-28T07:34:17.898Z,1.40
2022-08-28T07:36:45.170Z,1.20
2022-08-28T07:39:16.201Z,1.98
2022-08-28T07:41:43.325Z,1.00
2022-08-28T07:44:32.254Z,1.05
2022-08-28T07:47:04.259Z,1.13
2022-08-28T07:49:33.763Z,1.70
2022-08-28T07:52:00.993Z,1.30
2022-08-28T07:54:27.839Z,1.42
2022-08-28T07:56:55.142Z,1.02
2022-08-28T07:59:22.263Z,1.48
2022-08-28T08:01:51.516Z,1.60
2022-08-28T08:04:23.075Z,1.63
2022-08-28T08:06:57.180Z,1.50
2022-08-28T08:09:26.299Z,1.73
2022-08-28T08:11:54.784Z,1.63
2022-08-28T08:14:22.239Z,1.60
2022-08-28T08:16:49.712Z,1.55
2022-08-28T08:19:17.320Z,1.70
2022-08-28T08:21:46.867Z,1.50
2022-08-28T08:24:20.560Z,1.42
2022-08-28T08:26:58.770Z,1.50
2022-08-28T08:29:31.996Z,1.33
2022-08-28T08:32:05.578Z,1.67
2022-08-28T08:34:38.947Z,1.30
2022-08-28T08:37:07.032Z,1.23
2022-08-28T08:39:35.661Z,1.50
2022-08-28T08:42:37.325Z,1.50
2022-08-28T08:45:31.899Z,1.63
2022-08-28T08:48:13.669Z,1.77
2022-08-28T08:50:41.822Z,1.30
2022-08-28T08:53:14.717Z,1.33
2022-08-28T08:55:51.035Z,1.55
2022-08-28T08:58:28.685Z,1.63
2022-08-28T09:01:23.661Z,1.65
2022-08-28T09:19:14.322Z,1.52
2022-08-28T09:21:42.986Z,1.80
2022-08-28T09:24:20.348Z,1.50
2022-08-28T09:27:13.744Z,1.65
2022-08-28T09:29:48.077Z,1.30
2022-08-28T09:32:31.876Z,1.20
2022-08-28T09:35:34.767Z,1.20
2022-08-28T09:38:22.166Z,1.08
2022-08-28T09:41:28.540Z,1.30
2022-08-28T09:43:56.173Z,0.98
2022-08-28T09:46:30.779Z,1.90
2022-08-28T09:49:12.659Z,1.17
2022-08-28T09:51:40.301Z,1.10
2022-08-28T09:54:21.914Z,1.27
2022-08-28T09:56:50.752Z,0.80
2022-08-28T09:59:20.219Z,1.10
2022-08-28T10:01:54.469Z,0.90
2022-08-28T10:04:24.372Z,1.50
2022-08-28T10:06:54.421Z,1.80
2022-08-28T10:09:30.390Z,1.10
2022-08-28T10:12:09.527Z,1.40
2022-08-28T10:14:59.308Z,1.25
2022-08-28T10:17:35.116Z,1.02
2022-08-28T10:20:16.268Z,1.02
2022-08-28T10:22:59.979Z,1.42
2022-08-28T10:26:04.281Z,1.88
2022-08-28T10:28:56.262Z,1.00
2022-08-28T10:31:32.874Z,1.42
2022-08-28T10:34:18.008Z,1.00
2022-08-28T10:37:02.145Z,1.10
2022-08-28T10:39:53.080Z,1.20
2022-08-28T10:42:36.148Z,1.48
2022-08-28T10:45:17.140Z,1.45
2022-08-28T10:47:51.309Z,1.77
2022-08-28T10:50:25.537Z,1.45
2022-08-28T10:53:09.084Z,1.42
2022-08-28T10:55:51.001Z,1.25
2022-08-28T10:58:21.157Z,1.10
2022-08-28T11:00:56.323Z,1.00
2022-08-28T11:03:41.052Z,1.55
2022-08-28T11:06:15.948Z,1.13
2022-08-28T11:08:52.858Z,1.00
2022-08-28T11:11:44.185Z,1.40
2022-08-28T11:14:28.508Z,0.90
2022-08-28T11:16:59.311Z,1.08
2022-08-28T11:19:55.440Z,0.80
2022-08-28T11:22:35.587Z,0.90
2022-08-28T11:25:15.518Z,1.20
2022-08-28T11:28:14.641Z,1.20
2022-08-28T11:30:42.957Z,1.25
2022-08-28T11:33:41.583Z,1.23
2022-08-28T11:36:21.280Z,1.00
2022-08-28T11:38:51.253Z,1.27
2022-08-28T11:41:41.126Z,1.77
2022-08-28T11:44:13.678Z,1.10
2022-08-28T11:46:49.165Z,0.95
2022-08-28T11:49:34.336Z,1.10
2022-08-28T11:52:19.909Z,1.30
2022-08-28T11:55:05.106Z,1.60
2022-08-28T11:57:56.400Z,1.20
2022-08-28T12:00:33.089Z,0.90
2022-08-28T12:03:12.725Z,1.17
2022-08-28T12:05:45.265Z,1.10
2022-08-28T12:08:13.793Z,1.00
2022-08-28T12:10:54.091Z,1.40
2022-08-28T12:13:45.905Z,1.00
2022-08-28T12:16:13.176Z,1.05
2022-08-28T12:18:43.040Z,0.95
2022-08-28T12:21:17.858Z,1.50
2022-08-28T12:23:58.924Z,1.30
2022-08-28T12:26:35.876Z,1.17
2022-08-28T12:29:26.828Z,1.05
2022-08-28T12:32:12.138Z,1.27
2022-08-28T12:34:46.303Z,1.25
2022-08-28T12:37:52.521Z,1.50
2022-08-28T12:40:25.013Z,1.48
2022-08-28T12:43:01.368Z,1.15
2022-08-28T12:46:03.762Z,1.55
2022-08-28T12:48:50.693Z,1.25
2022-08-28T12:51:24.196Z,1.20
2022-08-28T12:53:57.337Z,1.38
2022-08-28T12:56:26.164Z,1.20
2022-08-28T12:58:53.197Z,1.00
2022-08-28T13:01:34.020Z,0.80
2022-08-28T13:04:19.140Z,0.60
2022-08-28T13:06:46.113Z,0.93
2022-08-28T13:09:19.049Z,0.90
2022-08-28T13:11:50.461Z,0.80
2022-08-28T13:14:36.059Z,0.80
2022-08-28T13:17:02.972Z,0.90
2022-08-28T13:19:32.509Z,1.00
2022-08-28T13:22:05.472Z,1.10
2022-08-28T13:24:35.038Z,1.48
2022-08-28T13:27:09.005Z,1.35
2022-08-28T13:29:36.688Z,1.15
2022-08-28T13:32:08.148Z,1.42
2022-08-28T13:34:47.796Z,1.17
2022-08-28T13:37:43.789Z,0.90
2022-08-28T13:40:36.874Z,1.50
2022-08-28T13:43:11.429Z,1.10
2022-08-28T13:45:43.496Z,1.20
2022-08-28T13:48:18.600Z,1.10
2022-08-28T13:50:48.639Z,1.13
2022-08-28T13:53:18.452Z,1.00
2022-08-28T13:55:46.240Z,1.25
2022-08-28T13:58:14.070Z,0.98
2022-08-28T14:00:44.456Z,1.20
2022-08-28T14:03:32.765Z,1.25
2022-08-28T14:05:59.846Z,1.05
2022-08-28T14:08:28.897Z,0.90
2022-08-28T14:10:55.928Z,1.20
2022-08-28T14:13:26.946Z,1.05
2022-08-28T14:15:55.362Z,1.30
2022-08-28T14:18:23.387Z,1.33
2022-08-28T14:20:50.230Z,1.05
2022-08-28T14:23:17.448Z,1.23
2022-08-28T14:25:45.997Z,1.20
2022-08-28T14:28:14.418Z,0.95
2022-08-28T14:30:51.248Z,0.90
2022-08-28T14:33:20.771Z,1.00
2022-08-28T14:35:48.951Z,0.93
2022-08-28T14:38:16.769Z,1.00
2022-08-28T14:40:44.838Z,0.80
2022-08-28T14:43:13.201Z,1.20
2022-08-28T14:45:48.014Z,1.17
2022-08-28T14:48:17.396Z,1.23
2022-08-28T14:50:46.726Z,1.52
2022-08-28T14:53:14.491Z,1.48
2022-08-28T14:55:46.393Z,1.15
2022-08-28T14:58:14.060Z,1.33
2022-08-28T15:00:43.751Z,1.20
2022-08-28T15:03:14.030Z,0.93
2022-08-28T15:05:42.137Z,1.10
2022-08-28T15:08:10.476Z,1.10
2022-08-28T15:10:38.879Z,0.90
2022-08-28T15:13:07.757Z,1.20
2022-08-28T15:15:41.283Z,0.98
2022-08-28T15:18:10.414Z,0.90
2022-08-28T15:20:39.217Z,0.90
2022-08-28T15:23:06.407Z,1.05
2022-08-28T15:25:33.222Z,1.05
2022-08-28T15:28:00.097Z,1.05
2022-08-28T15:30:27.321Z,1.65
2022-08-28T15:32:54.651Z,1.42
2022-08-28T15:35:21.573Z,1.35
2022-08-28T15:37:48.778Z,1.13
2022-08-28T15:40:34.375Z,1.02
2022-08-28T15:43:01.333Z,1.25
2022-08-28T15:45:28.179Z,0.88
2022-08-28T15:47:55.042Z,0.80
2022-08-28T15:50:24.430Z,0.90
2022-08-28T15:52:53.532Z,0.75
2022-08-28T15:55:20.414Z,0.80
2022-08-28T15:57:47.294Z,0.65
2022-08-28T16:00:14.723Z,0.75
2022-08-28T16:02:41.636Z,0.60
2022-08-28T16:05:16.116Z,0.70
2022-08-28T16:07:43.010Z,0.70
2022-08-28T16:10:12.998Z,0.88
2022-08-28T16:12:40.941Z,0.50
2022-08-28T16:15:08.705Z,0.60
2022-08-28T16:17:35.644Z,0.40
2022-08-28T16:20:06.464Z,0.63
2022-08-28T16:22:39.460Z,0.90
2022-08-28T16:25:06.992Z,0.70
2022-08-28T16:27:34.059Z,0.90
2022-08-28T16:30:01.154Z,0.82
2022-08-28T16:32:28.023Z,0.95
2022-08-28T16:34:54.866Z,0.95
2022-08-28T16:37:22.990Z,1.17
2022-08-28T16:39:54.688Z,1.13
2022-08-28T16:42:22.361Z,1.20
2022-08-28T16:44:49.164Z,1.77
2022-08-28T16:47:16.212Z,0.90
2022-08-28T16:49:43.213Z,1.10
2022-08-28T16:52:10.049Z,1.55
2022-08-28T16:54:36.994Z,1.30
2022-08-28T16:57:15.033Z,1.30
2022-08-28T16:59:42.000Z,1.45
2022-08-28T17:02:08.858Z,1.40
2022-08-28T17:04:40.303Z,1.35
2022-08-28T17:07:07.245Z,1.38
2022-08-28T17:09:34.121Z,1.75
2022-08-28T17:12:00.944Z,1.40
2022-08-28T17:14:30.751Z,1.15
2022-08-28T17:16:57.605Z,1.30
2022-08-28T17:19:25.273Z,1.40
2022-08-28T17:22:11.225Z,1.40
2022-08-28T17:24:38.183Z,1.38
2022-08-28T17:27:05.996Z,1.23
2022-08-28T17:29:34.689Z,1.10
2022-08-28T17:32:01.497Z,1.65
2022-08-28T17:34:30.429Z,1.48
2022-08-28T17:36:58.767Z,1.88
2022-08-28T17:39:25.743Z,1.70
2022-08-28T17:41:52.637Z,1.80
2022-08-28T17:44:19.412Z,1.50
2022-08-28T17:46:46.317Z,1.60
2022-08-28T17:49:13.120Z,1.60
2022-08-28T17:51:43.706Z,1.15
2022-08-28T17:54:24.403Z,1.45
2022-08-28T17:56:53.130Z,1.60
2022-08-28T17:59:21.012Z,1.52
2022-08-28T18:01:48.752Z,1.20
2022-08-28T18:04:23.648Z,1.20
2022-08-28T18:06:57.781Z,0.90
2022-08-28T18:09:27.237Z,1.08
2022-08-28T18:11:54.082Z,0.70
2022-08-28T18:14:21.413Z,0.52
2022-08-28T18:16:48.546Z,0.60
2022-08-28T18:19:16.511Z,0.70
2022-08-28T18:21:43.462Z,0.60
2022-08-28T18:24:13.072Z,0.70
2022-08-28T18:26:41.691Z,0.45
2022-08-28T18:29:08.579Z,0.50
2022-08-28T18:31:35.543Z,0.50
2022-08-28T18:34:02.483Z,0.55
2022-08-28T18:36:29.549Z,0.60
2022-08-28T18:38:56.806Z,0.60
2022-08-28T18:41:41.538Z,0.70
2022-08-28T18:44:12.017Z,0.52
2022-08-28T18:46:39.004Z,0.40
2022-08-28T18:49:06.054Z,0.47
2022-08-28T18:51:33.212Z,0.50
2022-08-28T18:54:02.064Z,0.50
2022-08-28T18:56:32.020Z,0.50
2022-08-28T18:58:59.383Z,0.52
2022-08-28T19:01:26.560Z,0.50
2022-08-28T19:03:54.823Z,0.40
2022-08-28T19:06:21.840Z,0.40
2022-08-28T19:08:48.825Z,0.57
2022-08-28T19:11:16.546Z,0.40
2022-08-28T19:13:44.521Z,0.40
2022-08-28T19:16:17.216Z,0.40
2022-08-28T19:18:45.805Z,0.35
2022-08-28T19:21:18.898Z,0.30
2022-08-28T19:23:56.107Z,0.50
2022-08-28T19:26:27.351Z,0.43
2022-08-28T19:28:54.845Z,0.47
2022-08-28T19:31:23.013Z,0.40
2022-08-28T19:33:50.128Z,0.50
2022-08-28T19:36:18.686Z,0.60
2022-08-28T19:38:45.788Z,0.50
2022-08-28T19:41:14.521Z,0.50
2022-08-28T19:43:44.126Z,0.55
2022-08-28T19:46:19.601Z,0.60
2022-08-28T19:48:47.967Z,0.50
2022-08-28T19:51:17.563Z,0.60
2022-08-28T19:53:57.793Z,0.60
2022-08-28T19:56:27.735Z,0.60
2022-08-28T19:58:59.547Z,0.40
2022-08-28T20:01:31.693Z,0.60
2022-08-28T20:04:00.549Z,0.70
2022-08-28T20:06:28.540Z,0.60
2022-08-28T20:08:55.581Z,0.60
2022-08-28T20:11:30.655Z,0.75
2022-08-28T20:14:04.128Z,0.68
2022-08-28T20:16:34.193Z,0.70
2022-08-28T20:19:01.565Z,0.70
2022-08-28T20:21:37.487Z,0.45
2022-08-28T20:24:10.654Z,0.60
2022-08-28T20:26:37.638Z,0.60
2022-08-28T20:29:06.817Z,0.50
2022-08-28T20:31:34.787Z,0.55
2022-08-28T20:34:01.624Z,0.38
2022-08-28T20:36:28.524Z,0.57
2022-08-28T20:38:55.309Z,0.75
2022-08-28T20:41:22.768Z,0.60
2022-08-28T20:43:50.229Z,0.68
2022-08-28T20:46:17.449Z,0.98
2022-08-28T20:48:44.693Z,0.55
2022-08-28T20:51:12.492Z,0.52
2022-08-28T20:53:39.983Z,0.60
2022-08-28T20:56:09.705Z,0.60
2022-08-28T20:58:38.080Z,0.40
2022-08-28T21:01:06.277Z,0.63
2022-08-28T21:03:33.266Z,0.50
2022-08-28T21:06:00.202Z,0.50
2022-08-28T21:08:27.230Z,0.50
2022-08-28T21:10:54.199Z,0.50
2022-08-28T21:13:21.981Z,0.40
2022-08-28T21:15:48.892Z,0.50
2022-08-28T21:18:16.586Z,0.40
2022-08-28T21:20:44.250Z,0.55
2022-08-28T21:23:11.111Z,0.57
2022-08-28T21:25:41.180Z,0.30
2022-08-28T21:28:08.244Z,0.30
2022-08-28T21:30:35.520Z,0.40
2022-08-28T21:33:02.400Z,0.50
2022-08-28T21:35:29.255Z,0.40
2022-08-28T21:37:56.022Z,0.50
2022-08-28T21:40:22.913Z,0.63
2022-08-28T21:42:49.853Z,0.70
2022-08-28T21:45:16.755Z,0.57
2022-08-28T21:47:43.600Z,0.70
2022-08-28T21:50:11.368Z,0.47
2022-08-28T21:52:39.274Z,0.70
2022-08-28T21:55:10.844Z,0.60
2022-08-28T21:57:38.191Z,0.50
2022-08-28T22:00:15.907Z,0.70
2022-08-28T22:02:43.320Z,0.80
2022-08-28T22:05:10.967Z,0.70
2022-08-28T22:07:38.205Z,0.73
2022-08-28T22:10:05.260Z,0.57
2022-08-28T22:12:32.769Z,0.68
2022-08-28T22:15:00.196Z,0.60
2022-08-28T22:17:27.449Z,0.57
2022-08-28T22:19:55.148Z,0.50
2022-08-28T22:22:40.400Z,0.60
2022-08-28T22:25:07.780Z,0.50
2022-08-28T22:27:34.817Z,0.60
2022-08-28T22:30:01.688Z,0.60
2022-08-28T22:32:28.648Z,0.80
2022-08-28T22:34:55.968Z,0.85
2022-08-28T22:37:23.355Z,0.93
2022-08-28T22:39:50.637Z,0.80
2022-08-28T22:42:17.853Z,0.80
2022-08-28T22:44:44.778Z,0.70
2022-08-28T22:47:11.770Z,0.63
2022-08-28T22:49:39.608Z,0.60
2022-08-28T22:52:09.050Z,0.70
2022-08-28T22:54:36.247Z,0.75
2022-08-28T22:57:03.207Z,0.85
2022-08-28T22:59:30.071Z,0.63
2022-08-28T23:01:58.803Z,0.85
2022-08-28T23:04:29.045Z,0.32
2022-08-28T23:06:56.011Z,0.50
2022-08-28T23:09:22.909Z,0.47
2022-08-28T23:11:49.809Z,0.50
2022-08-28T23:14:17.328Z,0.93
2022-08-28T23:16:44.955Z,0.55
2022-08-28T23:19:13.519Z,0.60
2022-08-28T23:21:44.097Z,0.70
2022-08-28T23:24:16.151Z,0.70
2022-08-28T23:26:44.186Z,0.60
2022-08-28T23:29:12.218Z,0.70
2022-08-28T23:31:39.360Z,0.52
2022-08-28T23:34:07.099Z,0.60
2022-08-28T23:36:35.522Z,0.57
2022-08-28T23:39:03.221Z,0.40
2022-08-28T23:41:31.200Z,0.50
2022-08-28T23:43:58.153Z,0.60
2022-08-28T23:46:25.209Z,0.50
2022-08-28T23:48:52.640Z,0.40
2022-08-28T23:51:19.990Z,0.50
2022-08-28T23:53:47.666Z,0.60
2022-08-28T23:56:14.873Z,0.60
2022-08-28T23:58:43.305Z,0.50
